createdAt,value
2022-08-17T00:03:40.614Z,9.90
2022-08-17T00:07:22.848Z,8.98
2022-08-17T00:11:07.987Z,8.52
2022-08-17T00:14:50.049Z,8.52
2022-08-17T00:19:06.324Z,8.40
2022-08-17T00:22:36.694Z,8.32
2022-08-17T00:26:44.576Z,8.05
2022-08-17T00:30:22.301Z,8.60
2022-08-17T00:34:06.358Z,8.35
2022-08-17T00:37:48.318Z,8.73
2022-08-17T00:41:30.981Z,9.60
2022-08-17T00:45:16.561Z,10.13
2022-08-17T00:48:59.239Z,9.30
2022-08-17T00:52:52.337Z,9.40
2022-08-17T00:56:38.673Z,9.00
2022-08-17T01:00:36.150Z,9.75
2022-08-17T01:04:21.213Z,9.23
2022-08-17T01:08:03.604Z,10.05
2022-08-17T01:11:48.331Z,9.18
2022-08-17T01:15:34.221Z,8.45
2022-08-17T01:19:25.421Z,8.88
2022-08-17T01:23:07.369Z,8.73
2022-08-17T01:26:49.357Z,8.38
2022-08-17T01:30:58.930Z,8.52
2022-08-17T01:34:42.604Z,9.05
2022-08-17T01:38:45.681Z,10.25
2022-08-17T01:42:31.689Z,9.55
2022-08-17T01:46:35.641Z,9.85
2022-08-17T01:50:27.603Z,9.50
2022-08-17T01:54:13.516Z,9.20
2022-08-17T01:57:55.466Z,8.93
2022-08-17T02:01:38.183Z,9.00
2022-08-17T02:05:20.425Z,9.30
2022-08-17T02:09:03.832Z,8.75
2022-08-17T02:12:45.902Z,8.75
2022-08-17T02:16:27.920Z,9.13
2022-08-17T02:20:42.126Z,9.43
2022-08-17T02:24:59.992Z,9.30
2022-08-17T02:28:28.592Z,9.73
2022-08-17T02:32:25.454Z,9.05
2022-08-17T02:36:10.581Z,9.73
2022-08-17T02:39:52.842Z,10.93
2022-08-17T02:43:35.225Z,10.07
2022-08-17T02:47:17.135Z,9.98
2022-08-17T02:51:00.534Z,10.00
2022-08-17T02:54:42.610Z,10.02
2022-08-17T02:58:35.510Z,10.77
2022-08-17T03:02:17.994Z,14.70
2022-08-17T03:06:00.476Z,11.00
2022-08-17T03:09:42.585Z,10.77
2022-08-17T03:13:24.563Z,12.38
2022-08-17T03:17:06.842Z,10.27
2022-08-17T03:20:49.765Z,10.43
2022-08-17T03:24:31.932Z,9.98
2022-08-17T03:28:13.905Z,10.77
2022-08-17T03:31:55.845Z,10.57
2022-08-17T03:35:40.444Z,10.23
2022-08-17T03:39:22.407Z,9.68
2022-08-17T03:43:06.968Z,10.00
2022-08-17T03:47:07.314Z,10.88
2022-08-17T03:51:12.726Z,10.23
2022-08-17T03:58:56.750Z,11.05
2022-08-17T04:02:38.817Z,9.95
2022-08-17T04:06:20.856Z,12.38
2022-08-17T04:10:02.820Z,10.60
2022-08-17T04:13:44.817Z,10.50
2022-08-17T04:17:29.025Z,11.23
2022-08-17T04:21:11.137Z,10.27
2022-08-17T04:24:52.998Z,10.88
2022-08-17T04:28:35.558Z,11.02
2022-08-17T04:32:19.626Z,11.95
2022-08-17T04:36:19.386Z,11.77
2022-08-17T04:40:19.751Z,12.15
2022-08-17T04:44:03.968Z,12.23
2022-08-17T04:47:45.870Z,10.98
2022-08-17T04:51:54.746Z,13.50
2022-08-17T04:55:39.333Z,11.80
2022-08-17T04:59:22.331Z,12.40
2022-08-17T05:03:04.797Z,12.32
2022-08-17T05:06:47.163Z,13.70
2022-08-17T05:10:33.135Z,12.75
2022-08-17T05:14:15.286Z,12.50
2022-08-17T05:17:57.499Z,13.25
2022-08-17T05:21:39.521Z,12.60
2022-08-17T05:25:29.080Z,13.60
2022-08-17T05:29:14.745Z,12.88
2022-08-17T05:33:05.203Z,13.60
2022-08-17T05:36:47.938Z,12.43
2022-08-17T05:40:32.808Z,12.88
2022-08-17T05:44:16.031Z,13.00
2022-08-17T05:47:57.961Z,13.52
2022-08-17T05:52:41.371Z,13.18
2022-08-17T05:56:37.474Z,13.45
2022-08-17T06:00:35.692Z,13.93
2022-08-17T06:04:20.368Z,14.75
2022-08-17T06:08:20.642Z,13.43
2022-08-17T06:12:42.825Z,12.90
2022-08-17T06:16:39.085Z,13.30
2022-08-17T06:20:21.497Z,13.40
2022-08-17T06:24:28.137Z,12.57
2022-08-17T06:28:14.790Z,13.00
2022-08-17T06:36:25.220Z,11.98
2022-08-17T06:40:36.598Z,11.55
2022-08-17T06:44:51.716Z,12.07
2022-08-17T06:48:58.710Z,12.00
2022-08-17T06:53:04.633Z,11.95
2022-08-17T06:57:02.589Z,11.40
2022-08-17T07:00:47.340Z,10.85
2022-08-17T07:04:33.969Z,11.00
2022-08-17T07:08:29.668Z,10.48
2022-08-17T07:12:22.281Z,11.32
2022-08-17T07:16:26.315Z,10.27
2022-08-17T07:20:15.123Z,11.30
2022-08-17T07:24:30.193Z,10.35
2022-08-17T07:28:13.028Z,10.65
2022-08-17T07:31:55.787Z,10.25
2022-08-17T07:35:43.944Z,9.50
2022-08-17T07:39:27.985Z,8.85
2022-08-17T07:43:22.350Z,9.55
2022-08-17T07:47:32.251Z,7.82
2022-08-17T07:51:19.197Z,12.23
2022-08-17T07:55:21.028Z,8.93
2022-08-17T07:59:23.757Z,8.25
2022-08-17T08:03:21.856Z,7.32
2022-08-17T08:07:24.479Z,7.50
2022-08-17T08:11:27.972Z,7.30
2022-08-17T08:15:18.840Z,6.90
2022-08-17T08:19:02.248Z,6.28
2022-08-17T08:23:21.659Z,6.78
2022-08-17T08:27:19.083Z,7.97
2022-08-17T08:31:42.619Z,6.82
2022-08-17T08:35:32.481Z,6.95
2022-08-17T08:39:35.584Z,7.93
2022-08-17T08:43:52.218Z,6.80
2022-08-17T08:48:05.167Z,7.97
2022-08-17T08:51:59.494Z,8.27
2022-08-17T08:56:16.472Z,9.30
2022-08-17T09:00:21.335Z,7.07
2022-08-17T09:05:10.689Z,8.13
2022-08-17T09:09:02.754Z,7.88
2022-08-17T09:13:14.509Z,7.70
2022-08-17T09:17:27.914Z,9.77
2022-08-17T09:21:18.998Z,8.98
2022-08-17T09:25:08.965Z,7.22
2022-08-17T09:28:55.933Z,7.95
2022-08-17T09:32:44.811Z,8.60
2022-08-17T09:36:34.491Z,7.18
2022-08-17T09:40:24.500Z,7.40
2022-08-17T09:44:23.712Z,8.23
2022-08-17T09:48:27.639Z,6.10
2022-08-17T09:52:20.913Z,7.07
2022-08-17T09:56:27.626Z,6.32
2022-08-17T10:00:16.695Z,7.78
2022-08-17T10:04:29.343Z,7.28
2022-08-17T10:08:27.735Z,7.00
2022-08-17T10:12:21.453Z,9.45
2022-08-17T10:16:09.352Z,6.30
2022-08-17T10:20:22.618Z,7.07
2022-08-17T10:24:31.699Z,7.45
2022-08-17T10:28:25.857Z,6.10
2022-08-17T10:32:16.593Z,6.53
2022-08-17T10:36:11.206Z,7.15
2022-08-17T10:40:26.452Z,5.38
2022-08-17T10:44:39.609Z,4.30
2022-08-17T10:48:37.871Z,5.70
2022-08-17T10:52:19.734Z,6.35
2022-08-17T10:56:13.832Z,6.00
2022-08-17T10:59:57.442Z,6.05
2022-08-17T11:04:21.360Z,5.20
2022-08-17T11:08:26.288Z,5.18
2022-08-17T11:12:08.636Z,5.25
2022-08-17T11:16:32.673Z,7.20
2022-08-17T11:20:30.136Z,6.65
2022-08-17T11:24:28.354Z,4.30
2022-08-17T11:28:20.994Z,5.78
2022-08-17T11:32:14.190Z,3.95
2022-08-17T11:36:04.169Z,5.22
2022-08-17T11:39:54.484Z,7.88
2022-08-17T11:43:55.615Z,6.35
2022-08-17T11:48:28.798Z,6.00
2022-08-17T11:52:39.033Z,4.40
2022-08-17T11:56:43.942Z,4.50
2022-08-17T12:00:49.935Z,5.13
2022-08-17T12:04:34.161Z,4.10
2022-08-17T12:08:20.361Z,3.60
2022-08-17T12:16:05.597Z,4.65
2022-08-17T12:19:47.575Z,4.50
2022-08-17T12:24:00.557Z,4.65
2022-08-17T12:28:05.623Z,3.45
2022-08-17T12:31:52.319Z,3.63
2022-08-17T12:35:38.897Z,4.00
2022-08-17T12:39:22.922Z,3.55
2022-08-17T12:43:18.789Z,6.43
2022-08-17T12:47:23.295Z,4.63
2022-08-17T12:51:07.900Z,4.03
2022-08-17T12:55:00.533Z,3.97
2022-08-17T12:58:53.537Z,2.58
2022-08-17T13:02:46.515Z,3.25
2022-08-17T13:06:32.348Z,3.50
2022-08-17T13:10:19.145Z,3.40
2022-08-17T13:14:10.152Z,4.00
2022-08-17T13:18:36.507Z,2.63
2022-08-17T13:22:23.892Z,2.97
2022-08-17T13:26:09.251Z,4.30
2022-08-17T13:29:55.449Z,2.40
2022-08-17T13:33:44.783Z,2.20
2022-08-17T13:37:33.931Z,2.97
2022-08-17T13:41:37.795Z,3.28
2022-08-17T13:45:36.647Z,2.33
2022-08-17T13:49:21.366Z,3.30
2022-08-17T13:53:14.940Z,1.95
2022-08-17T13:57:12.836Z,3.83
2022-08-17T14:00:56.313Z,3.67
2022-08-17T14:04:40.869Z,3.00
2022-08-17T14:08:22.865Z,3.45
2022-08-17T14:12:09.698Z,2.83
2022-08-17T14:15:53.977Z,1.20
2022-08-17T14:19:38.820Z,1.20
2022-08-17T14:23:21.077Z,1.38
2022-08-17T14:27:05.737Z,3.50
2022-08-17T14:30:47.712Z,1.75
2022-08-17T14:34:29.684Z,3.00
2022-08-17T14:38:11.603Z,1.40
2022-08-17T14:41:53.604Z,2.38
2022-08-17T14:45:35.983Z,1.40
2022-08-17T14:49:20.694Z,1.35
2022-08-17T14:53:04.534Z,1.67
2022-08-17T14:56:47.208Z,2.95
2022-08-17T15:00:40.625Z,2.08
2022-08-17T15:04:22.590Z,1.80
2022-08-17T15:08:06.243Z,1.17
2022-08-17T15:11:48.222Z,1.30
2022-08-17T15:15:30.542Z,1.50
2022-08-17T15:19:12.477Z,1.25
2022-08-17T15:22:59.040Z,3.42
2022-08-17T15:26:41.182Z,1.67
2022-08-17T15:30:24.330Z,2.75
2022-08-17T15:34:08.094Z,3.08
2022-08-17T15:37:50.782Z,1.10
2022-08-17T15:41:32.976Z,2.50
2022-08-17T15:45:17.023Z,1.23
2022-08-17T15:49:00.464Z,1.95
2022-08-17T15:52:44.955Z,3.03
2022-08-17T15:56:28.111Z,2.35
2022-08-17T16:00:11.270Z,1.40
2022-08-17T16:04:05.247Z,2.78
2022-08-17T16:07:50.661Z,1.52
2022-08-17T16:11:32.650Z,2.47
2022-08-17T16:15:16.292Z,1.52
2022-08-17T16:18:59.155Z,1.23
2022-08-17T16:22:44.802Z,2.55
2022-08-17T16:26:28.440Z,3.33
2022-08-17T16:30:16.587Z,3.38
2022-08-17T16:34:17.135Z,2.92
2022-08-17T16:38:00.165Z,3.58
2022-08-17T16:41:45.398Z,3.35
2022-08-17T16:45:29.407Z,2.88
2022-08-17T16:49:11.891Z,2.25
2022-08-17T16:53:10.913Z,1.98
2022-08-17T16:56:53.726Z,2.70
2022-08-17T17:00:37.121Z,3.58
2022-08-17T17:04:19.475Z,2.42
2022-08-17T17:08:10.066Z,2.85
2022-08-17T17:11:57.110Z,2.25
2022-08-17T17:15:55.109Z,2.45
2022-08-17T17:19:45.536Z,2.78
2022-08-17T17:23:45.166Z,1.63
2022-08-17T17:27:39.119Z,1.75
2022-08-17T17:31:25.394Z,1.73
2022-08-17T17:35:25.707Z,2.13
2022-08-17T17:39:13.070Z,1.63
2022-08-17T17:43:14.357Z,1.90
2022-08-17T17:47:02.453Z,1.45
2022-08-17T17:51:07.096Z,2.95
2022-08-17T17:55:16.387Z,4.32
2022-08-17T17:59:29.464Z,1.83
2022-08-17T18:04:00.143Z,2.45
2022-08-17T18:07:54.327Z,1.42
2022-08-17T18:11:59.862Z,2.13
2022-08-17T18:15:54.021Z,2.17
2022-08-17T18:19:38.944Z,1.50
2022-08-17T18:23:27.063Z,2.92
2022-08-17T18:27:31.428Z,2.08
2022-08-17T18:31:18.278Z,3.90
2022-08-17T18:35:09.448Z,1.98
2022-08-17T18:39:18.054Z,2.17
2022-08-17T18:43:23.027Z,2.42
2022-08-17T18:47:23.044Z,1.75
2022-08-17T18:51:40.668Z,2.50
2022-08-17T18:55:29.311Z,1.85
2022-08-17T18:59:18.782Z,4.13
2022-08-17T19:03:03.416Z,1.73
2022-08-17T19:06:46.930Z,3.95
2022-08-17T19:10:46.304Z,1.73
2022-08-17T19:14:30.264Z,3.20
2022-08-17T19:18:18.522Z,1.63
2022-08-17T19:22:29.247Z,2.30
2022-08-17T19:26:54.200Z,2.60
2022-08-17T19:30:37.823Z,2.40
2022-08-17T19:34:33.095Z,2.55
2022-08-17T19:38:29.367Z,1.88
2022-08-17T19:42:15.049Z,3.20
2022-08-17T19:46:13.460Z,2.60
2022-08-17T19:50:18.848Z,1.88
2022-08-17T19:54:20.546Z,2.70
2022-08-17T19:58:08.746Z,2.80
2022-08-17T20:01:53.311Z,2.00
2022-08-17T20:06:10.888Z,2.40
2022-08-17T20:09:58.579Z,1.85
2022-08-17T20:13:51.010Z,3.28
2022-08-17T20:17:39.341Z,2.33
2022-08-17T20:21:40.368Z,2.30
2022-08-17T20:25:54.897Z,3.75
2022-08-17T20:30:10.785Z,2.53
2022-08-17T20:33:52.767Z,2.47
2022-08-17T20:37:36.275Z,1.90
2022-08-17T20:41:24.153Z,2.10
2022-08-17T20:45:21.448Z,3.10
2022-08-17T20:49:47.862Z,2.38
2022-08-17T20:53:49.727Z,2.28
2022-08-17T20:57:31.792Z,2.60
2022-08-17T21:01:20.224Z,3.20
2022-08-17T21:05:24.580Z,2.30
2022-08-17T21:09:29.965Z,2.65
2022-08-17T21:13:13.460Z,3.28
2022-08-17T21:17:24.982Z,2.20
2022-08-17T21:21:24.219Z,4.03
2022-08-17T21:25:27.864Z,1.63
2022-08-17T21:29:30.268Z,2.20
2022-08-17T21:33:20.255Z,1.98
2022-08-17T21:37:20.534Z,2.70
2022-08-17T21:41:02.880Z,2.45
2022-08-17T21:44:49.398Z,2.13
2022-08-17T21:48:41.501Z,2.03
2022-08-17T21:52:26.911Z,3.72
2022-08-17T21:56:11.956Z,2.33
2022-08-17T21:59:57.064Z,2.30
2022-08-17T22:03:40.403Z,2.75
2022-08-17T22:07:46.309Z,3.45
2022-08-17T22:11:28.497Z,2.20
2022-08-17T22:15:20.550Z,2.05
2022-08-17T22:19:04.768Z,2.10
2022-08-17T22:23:05.435Z,3.70
2022-08-17T22:27:11.627Z,3.42
2022-08-17T22:31:04.358Z,2.78
2022-08-17T22:34:46.336Z,2.65
2022-08-17T22:38:29.696Z,3.55
2022-08-17T22:42:15.418Z,5.82
2022-08-17T22:46:00.067Z,2.27
2022-08-17T22:50:01.610Z,2.67
2022-08-17T22:54:07.910Z,4.22
2022-08-17T22:58:08.483Z,3.38
2022-08-17T23:02:14.412Z,2.25
2022-08-17T23:06:11.151Z,2.90
2022-08-17T23:09:53.514Z,2.47
2022-08-17T23:13:37.534Z,4.22
2022-08-17T23:17:19.523Z,2.67
2022-08-17T23:21:01.490Z,4.32
2022-08-17T23:24:49.020Z,3.53
2022-08-17T23:28:31.009Z,4.70
2022-08-17T23:32:15.686Z,4.30
2022-08-17T23:36:00.200Z,3.53
2022-08-17T23:39:45.083Z,5.70
2022-08-17T23:43:28.412Z,4.25
2022-08-17T23:47:11.375Z,3.40
2022-08-17T23:50:57.217Z,7.90
2022-08-17T23:54:48.836Z,4.38
2022-08-17T23:58:32.342Z,3.08
